createdAt,value
2023-05-06T00:01:24.310Z,8.50
2023-05-06T00:03:51.528Z,11.23
2023-05-06T00:06:18.076Z,10.15
2023-05-06T00:08:45.234Z,10.05
2023-05-06T00:11:11.964Z,11.43
2023-05-06T00:13:38.364Z,9.82
2023-05-06T00:16:05.227Z,9.13
2023-05-06T00:18:31.784Z,9.85
2023-05-06T00:20:58.345Z,12.13
2023-05-06T00:23:24.856Z,12.80
2023-05-06T00:25:53.820Z,11.80
2023-05-06T00:28:20.346Z,12.52
2023-05-06T00:30:46.777Z,15.50
2023-05-06T00:33:13.230Z,27.15
2023-05-06T00:35:39.669Z,14.65
2023-05-06T00:38:11.699Z,18.63
2023-05-06T00:40:38.799Z,19.58
2023-05-06T00:43:06.744Z,14.45
2023-05-06T00:45:33.333Z,21.35
2023-05-06T00:48:04.268Z,31.23
2023-05-06T00:50:32.564Z,18.33
2023-05-06T00:52:59.964Z,14.23
2023-05-06T00:55:27.393Z,17.23
2023-05-06T01:00:21.529Z,19.85
2023-05-06T01:02:48.806Z,25.08
2023-05-06T01:05:18.646Z,13.20
2023-05-06T01:08:11.027Z,13.30
2023-05-06T01:11:00.781Z,13.15
2023-05-06T01:13:52.285Z,13.73
2023-05-06T01:16:23.353Z,12.00
2023-05-06T01:18:51.741Z,16.48
2023-05-06T01:21:19.306Z,50.17
2023-05-06T01:23:53.621Z,15.77
2023-05-06T01:26:20.061Z,11.27
2023-05-06T01:28:46.469Z,12.13
2023-05-06T01:31:17.262Z,10.93
2023-05-06T01:33:56.027Z,12.40
2023-05-06T01:36:46.045Z,15.88
2023-05-06T01:39:14.202Z,15.75
2023-05-06T01:41:41.909Z,14.70
2023-05-06T01:44:08.851Z,13.18
2023-05-06T01:46:35.848Z,13.25
2023-05-06T01:49:05.832Z,12.77
2023-05-06T01:51:33.675Z,12.02
2023-05-06T01:54:01.180Z,11.60
2023-05-06T01:58:59.373Z,11.10
2023-05-06T02:01:26.412Z,10.15
2023-05-06T02:03:53.096Z,8.52
2023-05-06T02:06:19.752Z,8.60
2023-05-06T02:08:46.297Z,9.57
2023-05-06T02:11:12.745Z,9.63
2023-05-06T02:13:39.135Z,10.45
2023-05-06T02:16:05.855Z,10.95
2023-05-06T02:18:32.410Z,10.63
2023-05-06T02:20:58.880Z,11.05
2023-05-06T02:23:25.290Z,10.25
2023-05-06T02:25:51.831Z,11.07
2023-05-06T02:28:18.316Z,13.50
2023-05-06T02:30:45.267Z,11.98
2023-05-06T02:33:11.699Z,12.00
2023-05-06T02:35:38.149Z,11.32
2023-05-06T02:38:04.580Z,10.77
2023-05-06T02:40:30.976Z,12.43
2023-05-06T02:42:57.430Z,12.68
2023-05-06T02:45:23.929Z,21.90
2023-05-06T02:47:50.396Z,21.70
2023-05-06T02:50:16.985Z,14.63
2023-05-06T02:52:43.500Z,13.00
2023-05-06T02:55:10.230Z,11.15
2023-05-06T02:57:36.952Z,10.63
2023-05-06T03:00:06.106Z,13.70
2023-05-06T03:02:32.560Z,15.15
2023-05-06T03:04:58.988Z,15.73
2023-05-06T03:07:26.477Z,21.75
2023-05-06T03:12:19.199Z,15.02
2023-05-06T03:14:45.629Z,14.82
2023-05-06T03:17:12.103Z,25.13
2023-05-06T03:19:38.543Z,17.77
2023-05-06T03:22:04.911Z,18.77
2023-05-06T03:24:31.292Z,19.75
2023-05-06T03:26:58.530Z,21.50
2023-05-06T03:29:25.035Z,20.27
2023-05-06T03:31:51.575Z,21.90
2023-05-06T03:34:18.094Z,17.63
2023-05-06T03:36:45.950Z,21.73
2023-05-06T03:39:12.564Z,18.83
2023-05-06T03:41:39.060Z,21.13
2023-05-06T03:44:05.499Z,19.90
2023-05-06T03:46:32.792Z,19.80
2023-05-06T03:49:00.649Z,21.88
2023-05-06T03:51:27.666Z,20.80
2023-05-06T03:53:55.116Z,23.20
2023-05-06T03:58:49.511Z,23.07
2023-05-06T04:01:18.233Z,19.87
2023-05-06T04:03:45.203Z,19.42
2023-05-06T04:06:11.694Z,19.85
2023-05-06T04:08:38.471Z,20.45
2023-05-06T04:11:06.277Z,19.30
2023-05-06T04:13:33.998Z,22.23
2023-05-06T04:16:01.287Z,23.33
2023-05-06T04:18:28.065Z,23.35
2023-05-06T04:20:54.563Z,23.02
2023-05-06T04:23:21.581Z,23.27
2023-05-06T04:25:51.026Z,27.25
2023-05-06T04:28:19.670Z,26.35
2023-05-06T04:30:47.112Z,26.60
2023-05-06T04:35:53.146Z,24.20
2023-05-06T04:38:25.736Z,22.17
2023-05-06T04:40:52.466Z,23.85
2023-05-06T04:43:18.963Z,24.05
2023-05-06T04:45:49.352Z,22.88
2023-05-06T04:48:19.791Z,23.83
2023-05-06T04:50:46.891Z,28.48
2023-05-06T04:53:15.230Z,29.88
2023-05-06T04:55:43.928Z,30.85
2023-05-06T04:58:10.465Z,31.60
2023-05-06T05:00:41.200Z,36.37
2023-05-06T05:03:07.675Z,32.72
2023-05-06T05:05:35.742Z,36.67
2023-05-06T05:08:02.246Z,35.40
2023-05-06T05:10:28.745Z,36.50
2023-05-06T05:12:55.524Z,35.83
2023-05-06T05:15:22.083Z,37.38
2023-05-06T05:17:49.299Z,41.90
2023-05-06T05:20:15.809Z,40.53
2023-05-06T05:22:42.305Z,39.07
2023-05-06T05:25:09.255Z,47.83
2023-05-06T05:27:43.082Z,42.70
2023-05-06T05:30:09.940Z,47.85
2023-05-06T05:32:38.462Z,46.92
2023-05-06T05:35:05.557Z,46.97
2023-05-06T05:37:32.566Z,51.15
2023-05-06T05:39:59.008Z,50.17
2023-05-06T05:42:25.449Z,55.95
2023-05-06T05:44:51.904Z,53.63
2023-05-06T05:47:18.416Z,51.10
2023-05-06T05:49:45.071Z,53.77
2023-05-06T05:52:11.847Z,46.42
2023-05-06T05:54:38.402Z,51.13
2023-05-06T05:57:04.994Z,47.40
2023-05-06T05:59:32.761Z,53.58
2023-05-06T06:02:00.116Z,55.05
2023-05-06T06:06:53.893Z,58.10
2023-05-06T06:09:20.552Z,58.53
2023-05-06T06:11:47.094Z,62.40
2023-05-06T06:14:19.416Z,66.00
2023-05-06T06:16:47.947Z,59.35
2023-05-06T06:19:15.166Z,73.78
2023-05-06T06:21:45.805Z,63.92
2023-05-06T06:24:13.047Z,58.22
2023-05-06T06:26:39.620Z,61.13
2023-05-06T06:29:08.072Z,68.03
2023-05-06T06:31:34.859Z,58.10
2023-05-06T06:34:05.251Z,60.97
2023-05-06T06:36:32.306Z,58.55
2023-05-06T06:38:59.686Z,60.88
2023-05-06T06:43:54.620Z,51.40
2023-05-06T06:46:21.206Z,51.60
2023-05-06T06:48:48.099Z,48.25
2023-05-06T06:51:14.570Z,46.78
2023-05-06T06:53:41.284Z,51.23
2023-05-06T06:56:12.354Z,45.08
2023-05-06T06:58:38.779Z,49.50
2023-05-06T07:01:05.468Z,48.20
2023-05-06T07:03:38.011Z,41.97
2023-05-06T07:06:04.398Z,44.38
2023-05-06T07:08:30.892Z,49.97
2023-05-06T07:10:57.265Z,48.27
2023-05-06T07:13:23.782Z,42.95
2023-05-06T07:16:15.290Z,47.85
2023-05-06T07:18:41.811Z,53.08
2023-05-06T07:21:08.247Z,49.95
2023-05-06T07:23:35.734Z,47.03
2023-05-06T07:26:02.177Z,51.60
2023-05-06T07:28:28.661Z,44.20
2023-05-06T07:30:55.306Z,44.67
2023-05-06T07:33:21.809Z,47.22
2023-05-06T07:35:49.383Z,47.05
2023-05-06T07:38:15.770Z,48.50
2023-05-06T07:40:42.444Z,44.90
2023-05-06T07:43:09.901Z,42.28
2023-05-06T07:45:37.399Z,42.78
2023-05-06T07:48:04.129Z,45.47
2023-05-06T07:50:31.612Z,40.13
2023-05-06T07:52:58.484Z,43.45
2023-05-06T07:55:24.862Z,35.13
2023-05-06T07:57:55.689Z,38.53
2023-05-06T08:00:23.179Z,37.22
2023-05-06T08:02:49.761Z,36.72
2023-05-06T08:05:20.406Z,37.20
2023-05-06T08:07:47.033Z,36.90
2023-05-06T08:10:13.469Z,38.90
2023-05-06T08:12:40.054Z,38.37
2023-05-06T08:15:07.198Z,36.67
2023-05-06T08:17:34.938Z,35.08
2023-05-06T08:20:03.523Z,36.28
2023-05-06T08:22:29.950Z,30.88
2023-05-06T08:24:57.372Z,32.17
2023-05-06T08:27:24.850Z,28.40
2023-05-06T08:29:51.456Z,33.85
2023-05-06T08:32:18.546Z,33.92
2023-05-06T08:34:44.998Z,32.22
2023-05-06T08:37:11.497Z,35.93
2023-05-06T08:39:43.238Z,34.47
2023-05-06T08:42:11.678Z,33.55
2023-05-06T08:44:38.817Z,34.63
2023-05-06T08:47:05.450Z,35.70
2023-05-06T08:49:31.979Z,26.30
2023-05-06T08:52:04.950Z,27.83
2023-05-06T08:54:35.502Z,33.45
2023-05-06T08:57:10.313Z,23.52
2023-05-06T08:59:40.136Z,27.88
2023-05-06T09:02:08.312Z,24.13
2023-05-06T09:04:35.182Z,24.20
2023-05-06T09:07:12.753Z,23.45
2023-05-06T09:09:39.159Z,25.60
2023-05-06T09:12:13.740Z,23.17
2023-05-06T09:14:41.109Z,21.45
2023-05-06T09:17:26.573Z,21.40
2023-05-06T09:19:59.110Z,19.88
2023-05-06T09:22:30.809Z,22.00
2023-05-06T09:24:58.953Z,21.60
2023-05-06T09:27:29.164Z,21.10
2023-05-06T09:30:06.539Z,20.98
2023-05-06T09:32:34.101Z,22.27
2023-05-06T09:35:07.017Z,22.67
2023-05-06T09:37:33.380Z,20.70
2023-05-06T09:40:01.182Z,19.65
2023-05-06T09:42:29.576Z,18.63
2023-05-06T09:45:02.718Z,18.58
2023-05-06T09:47:35.194Z,19.20
2023-05-06T09:50:04.229Z,18.42
2023-05-06T09:52:31.703Z,15.15
2023-05-06T09:55:00.673Z,16.60
2023-05-06T09:57:30.863Z,15.05
2023-05-06T09:59:58.233Z,14.95
2023-05-06T10:04:57.408Z,15.25
2023-05-06T10:07:25.617Z,15.70
2023-05-06T10:09:54.320Z,17.75
2023-05-06T10:12:26.728Z,12.20
2023-05-06T10:14:53.301Z,17.25
2023-05-06T10:17:24.262Z,16.58
2023-05-06T10:19:55.328Z,14.98
2023-05-06T10:22:40.492Z,17.83
2023-05-06T10:25:22.798Z,17.27
2023-05-06T10:27:49.826Z,13.65
2023-05-06T10:30:19.258Z,14.82
2023-05-06T10:32:46.449Z,13.45
2023-05-06T10:35:29.976Z,12.90
2023-05-06T10:37:57.273Z,15.27
2023-05-06T10:40:24.378Z,12.40
2023-05-06T10:42:51.487Z,12.82
2023-05-06T10:45:20.127Z,15.50
2023-05-06T10:47:55.960Z,15.65
2023-05-06T10:50:29.410Z,11.07
2023-05-06T10:53:04.126Z,13.20
2023-05-06T10:55:35.923Z,10.38
2023-05-06T10:58:04.143Z,10.70
2023-05-06T11:00:32.400Z,11.60
2023-05-06T11:03:02.277Z,13.45
2023-05-06T11:05:29.156Z,10.45
2023-05-06T11:08:15.427Z,10.75
2023-05-06T11:10:42.020Z,12.07
2023-05-06T11:13:28.513Z,9.38
2023-05-06T11:15:57.057Z,9.13
2023-05-06T11:18:30.910Z,11.02
2023-05-06T11:21:00.288Z,12.25
2023-05-06T11:23:42.130Z,10.35
2023-05-06T11:26:09.722Z,10.32
2023-05-06T11:28:36.341Z,10.90
2023-05-06T11:31:02.935Z,11.05
2023-05-06T11:33:33.484Z,9.70
2023-05-06T11:36:00.800Z,11.73
2023-05-06T11:38:44.747Z,10.57
2023-05-06T11:41:11.798Z,11.43
2023-05-06T11:43:38.520Z,10.50
2023-05-06T11:48:32.170Z,9.20
2023-05-06T11:50:58.577Z,10.02
2023-05-06T11:53:26.607Z,8.25
2023-05-06T11:55:55.233Z,13.27
2023-05-06T11:58:28.138Z,11.10
2023-05-06T12:00:56.625Z,7.90
2023-05-06T12:03:24.941Z,9.63
2023-05-06T12:05:54.370Z,9.98
2023-05-06T12:08:29.678Z,6.97
2023-05-06T12:11:00.581Z,7.35
2023-05-06T12:13:28.273Z,7.97
2023-05-06T12:16:00.040Z,8.70
2023-05-06T12:18:27.484Z,10.43
2023-05-06T12:20:54.898Z,9.02
2023-05-06T12:23:24.495Z,9.30
2023-05-06T12:26:06.515Z,7.97
2023-05-06T12:28:35.410Z,6.68
2023-05-06T12:31:18.339Z,6.88
2023-05-06T12:33:47.264Z,8.85
2023-05-06T12:36:13.743Z,8.18
2023-05-06T12:41:16.010Z,6.28
2023-05-06T12:43:42.425Z,8.82
2023-05-06T12:48:38.615Z,7.00
2023-05-06T12:51:19.112Z,7.20
2023-05-06T12:53:55.629Z,7.10
2023-05-06T12:56:22.471Z,8.52
2023-05-06T12:58:59.437Z,9.95
2023-05-06T13:01:26.134Z,8.73
2023-05-06T13:03:53.740Z,11.32
2023-05-06T13:06:20.517Z,10.50
2023-05-06T13:08:46.914Z,9.98
2023-05-06T13:13:39.825Z,11.20
2023-05-06T13:16:07.584Z,11.10
2023-05-06T13:18:34.072Z,7.85
2023-05-06T13:21:00.771Z,9.75
2023-05-06T13:23:27.485Z,9.55
2023-05-06T13:26:05.368Z,7.10
2023-05-06T13:28:33.476Z,7.05
2023-05-06T13:31:00.125Z,6.35
2023-05-06T13:33:26.727Z,9.18
2023-05-06T13:35:53.223Z,9.15
2023-05-06T13:38:19.686Z,6.28
2023-05-06T13:40:48.596Z,6.15
2023-05-06T13:43:16.144Z,7.20
2023-05-06T13:45:44.182Z,5.68
2023-05-06T13:48:12.069Z,5.82
2023-05-06T13:50:38.636Z,5.75
2023-05-06T13:53:05.441Z,7.68
2023-05-06T13:55:32.105Z,7.07
2023-05-06T13:57:59.843Z,5.85
2023-05-06T14:00:26.356Z,7.10
2023-05-06T14:02:52.855Z,9.57
2023-05-06T14:05:19.394Z,9.32
2023-05-06T14:07:46.850Z,6.43
2023-05-06T14:10:14.520Z,9.15
2023-05-06T14:12:41.915Z,7.65
2023-05-06T14:15:09.799Z,7.97
2023-05-06T14:17:36.978Z,6.55
2023-05-06T14:20:05.392Z,8.27
2023-05-06T14:22:32.792Z,5.18
2023-05-06T14:24:59.204Z,7.05
2023-05-06T14:27:26.626Z,9.02
2023-05-06T14:29:53.177Z,6.50
2023-05-06T14:32:19.681Z,8.63
2023-05-06T14:34:46.154Z,8.75
2023-05-06T14:37:12.545Z,10.60
2023-05-06T14:39:39.584Z,8.50
2023-05-06T14:42:06.111Z,9.50
2023-05-06T14:44:34.565Z,11.00
2023-05-06T14:47:00.977Z,9.98
2023-05-06T14:49:27.554Z,8.48
2023-05-06T14:51:59.792Z,8.50
2023-05-06T14:54:26.883Z,10.60
2023-05-06T14:56:53.319Z,9.73
2023-05-06T14:59:19.786Z,9.45
2023-05-06T15:01:46.293Z,8.23
2023-05-06T15:06:40.203Z,8.90
2023-05-06T15:09:07.042Z,7.15
2023-05-06T15:11:33.465Z,5.97
2023-05-06T15:14:00.069Z,7.15
2023-05-06T15:18:58.999Z,8.20
2023-05-06T15:21:25.443Z,14.57
2023-05-06T15:23:56.170Z,6.70
2023-05-06T15:26:24.103Z,8.32
2023-05-06T15:28:50.703Z,8.18
2023-05-06T15:33:43.697Z,10.45
2023-05-06T15:36:10.845Z,11.90
2023-05-06T15:38:59.650Z,10.07
2023-05-06T15:41:33.964Z,9.95
2023-05-06T15:44:06.165Z,10.27
2023-05-06T15:46:33.147Z,11.15
2023-05-06T15:49:15.497Z,9.90
2023-05-06T15:51:44.655Z,10.90
2023-05-06T15:54:18.186Z,12.10
2023-05-06T15:56:46.001Z,12.05
2023-05-06T15:59:12.997Z,12.85
2023-05-06T16:04:09.701Z,12.48
2023-05-06T16:09:08.980Z,12.35
2023-05-06T16:11:35.473Z,9.73
2023-05-06T16:14:01.899Z,11.70
2023-05-06T16:16:28.402Z,13.43
2023-05-06T16:18:54.860Z,13.50
2023-05-06T16:21:21.309Z,11.23
2023-05-06T16:23:53.680Z,16.33
2023-05-06T16:26:20.196Z,12.00
2023-05-06T16:28:46.655Z,12.15
2023-05-06T16:31:13.121Z,11.18
2023-05-06T16:33:39.628Z,9.35
2023-05-06T16:36:06.421Z,10.00
2023-05-06T16:38:34.103Z,15.90
2023-05-06T16:41:00.703Z,12.57
2023-05-06T16:43:27.696Z,11.18
2023-05-06T16:45:54.116Z,9.77
2023-05-06T16:48:20.750Z,10.15
2023-05-06T16:50:53.246Z,9.95
2023-05-06T16:53:19.750Z,11.02
2023-05-06T16:55:53.471Z,10.77
2023-05-06T16:58:19.834Z,10.60
2023-05-06T17:00:55.782Z,15.10
2023-05-06T17:03:22.540Z,13.05
2023-05-06T17:05:48.961Z,12.35
2023-05-06T17:08:22.083Z,13.02
2023-05-06T17:10:59.826Z,13.10
2023-05-06T17:13:26.433Z,14.13
2023-05-06T17:16:06.486Z,13.75
2023-05-06T17:18:32.925Z,11.60
2023-05-06T17:21:01.828Z,13.88
2023-05-06T17:23:29.586Z,13.23
2023-05-06T17:25:57.091Z,15.43
2023-05-06T17:28:23.511Z,14.27
2023-05-06T17:30:51.077Z,14.43
2023-05-06T17:33:17.594Z,18.75
2023-05-06T17:35:44.621Z,13.48
2023-05-06T17:38:12.088Z,17.05
2023-05-06T17:40:38.719Z,14.20
2023-05-06T17:43:05.219Z,11.90
2023-05-06T17:45:31.706Z,12.23
2023-05-06T17:47:58.435Z,12.82
2023-05-06T17:50:24.905Z,14.15
2023-05-06T17:52:54.426Z,14.05
2023-05-06T17:55:26.811Z,19.60
2023-05-06T17:57:53.476Z,13.98
2023-05-06T18:00:20.149Z,11.88
2023-05-06T18:02:47.083Z,13.60
2023-05-06T18:05:16.579Z,15.40
2023-05-06T18:07:43.060Z,11.50
2023-05-06T18:10:10.131Z,14.27
2023-05-06T18:12:39.885Z,13.35
2023-05-06T18:15:07.132Z,13.88
2023-05-06T18:17:34.292Z,12.55
2023-05-06T18:20:00.816Z,10.98
2023-05-06T18:22:27.241Z,12.02
2023-05-06T18:24:55.337Z,11.15
2023-05-06T18:27:22.671Z,11.63
2023-05-06T18:29:49.106Z,13.93
2023-05-06T18:32:15.622Z,14.88
2023-05-06T18:34:46.147Z,11.95
2023-05-06T18:37:12.624Z,11.77
2023-05-06T18:39:42.891Z,13.00
2023-05-06T18:42:09.826Z,11.70
2023-05-06T18:44:36.395Z,8.15
2023-05-06T18:47:02.924Z,7.35
2023-05-06T18:49:31.442Z,7.28
2023-05-06T18:51:57.996Z,7.30
2023-05-06T18:54:26.706Z,7.80
2023-05-06T18:57:02.256Z,7.00
2023-05-06T18:59:28.744Z,8.35
2023-05-06T19:02:07.920Z,8.82
2023-05-06T19:04:34.414Z,9.27
2023-05-06T19:07:01.161Z,10.07
2023-05-06T19:09:28.639Z,12.23
2023-05-06T19:11:55.743Z,6.30
2023-05-06T19:16:51.876Z,10.68
2023-05-06T19:19:18.671Z,10.20
2023-05-06T19:21:45.412Z,9.73
2023-05-06T19:24:12.126Z,9.10
2023-05-06T19:26:46.095Z,14.23
2023-05-06T19:29:12.823Z,9.35
2023-05-06T19:31:39.296Z,10.10
2023-05-06T19:34:05.872Z,11.90
2023-05-06T19:36:32.426Z,10.68
2023-05-06T19:38:58.940Z,11.45
2023-05-06T19:41:25.636Z,11.07
2023-05-06T19:43:52.062Z,10.38
2023-05-06T19:46:18.549Z,13.40
2023-05-06T19:48:46.275Z,10.40
2023-05-06T19:51:12.692Z,11.40
2023-05-06T19:53:39.152Z,10.73
2023-05-06T19:56:13.412Z,11.23
2023-05-06T19:58:40.627Z,11.02
2023-05-06T20:01:07.220Z,9.93
2023-05-06T20:03:35.776Z,11.60
2023-05-06T20:06:03.105Z,13.00
2023-05-06T20:08:30.953Z,12.77
2023-05-06T20:10:57.361Z,13.43
2023-05-06T20:13:23.881Z,12.85
2023-05-06T20:15:50.995Z,8.73
2023-05-06T20:18:17.499Z,8.90
2023-05-06T20:20:44.130Z,10.85
2023-05-06T20:23:10.637Z,10.98
2023-05-06T20:25:37.241Z,10.50
2023-05-06T20:28:05.669Z,12.32
2023-05-06T20:30:32.419Z,10.90
2023-05-06T20:32:59.249Z,11.35
2023-05-06T20:35:26.932Z,13.25
2023-05-06T20:37:54.551Z,10.38
2023-05-06T20:40:21.360Z,10.93
2023-05-06T20:42:48.425Z,12.48
2023-05-06T20:47:41.487Z,11.40
2023-05-06T20:50:08.202Z,11.95
2023-05-06T20:52:34.624Z,10.32
2023-05-06T20:55:01.716Z,11.60
2023-05-06T20:59:56.072Z,10.60
2023-05-06T21:02:22.647Z,12.30
2023-05-06T21:04:49.245Z,9.18
2023-05-06T21:07:15.759Z,13.00
2023-05-06T21:09:42.317Z,10.30
2023-05-06T21:12:08.768Z,12.60
2023-05-06T21:14:35.327Z,12.73
2023-05-06T21:17:01.805Z,11.88
2023-05-06T21:19:28.609Z,12.05
2023-05-06T21:21:54.997Z,11.88
2023-05-06T21:24:21.427Z,14.07
2023-05-06T21:26:47.861Z,16.20
2023-05-06T21:29:14.316Z,17.40
2023-05-06T21:31:40.860Z,10.95
2023-05-06T21:34:08.009Z,13.32
2023-05-06T21:39:09.789Z,14.63
2023-05-06T21:41:36.334Z,14.07
2023-05-06T21:44:04.751Z,17.20
2023-05-06T21:46:32.391Z,16.13
2023-05-06T21:48:59.734Z,14.85
2023-05-06T21:53:57.008Z,15.90
2023-05-06T21:56:24.287Z,15.95
2023-05-06T21:58:51.330Z,15.05
2023-05-06T22:01:18.144Z,13.88
2023-05-06T22:03:46.989Z,14.95
2023-05-06T22:06:14.103Z,15.30
2023-05-06T22:08:41.114Z,15.65
2023-05-06T22:11:07.710Z,18.83
2023-05-06T22:13:34.264Z,18.98
2023-05-06T22:16:00.890Z,17.27
2023-05-06T22:18:29.872Z,18.20
2023-05-06T22:20:57.760Z,19.42
2023-05-06T22:23:24.884Z,17.13
2023-05-06T22:25:52.146Z,17.90
2023-05-06T22:28:19.298Z,17.15
2023-05-06T22:30:46.041Z,19.02
2023-05-06T22:33:12.586Z,20.10
2023-05-06T22:35:39.018Z,17.83
2023-05-06T22:38:05.647Z,24.08
2023-05-06T22:40:32.063Z,17.63
2023-05-06T22:42:58.548Z,20.87
2023-05-06T22:45:24.952Z,17.90
2023-05-06T22:47:51.349Z,17.67
2023-05-06T22:50:17.777Z,17.65
2023-05-06T22:52:44.242Z,15.77
2023-05-06T22:55:11.044Z,17.40
2023-05-06T22:57:37.773Z,18.05
2023-05-06T23:00:06.706Z,18.30
2023-05-06T23:02:33.170Z,17.10
2023-05-06T23:04:59.752Z,20.98
2023-05-06T23:07:26.191Z,19.17
2023-05-06T23:09:52.697Z,18.20
2023-05-06T23:12:19.143Z,18.52
2023-05-06T23:14:45.676Z,17.38
2023-05-06T23:17:12.177Z,19.42
2023-05-06T23:19:40.702Z,17.70
2023-05-06T23:22:07.169Z,19.17
2023-05-06T23:24:33.585Z,19.02
2023-05-06T23:27:00.119Z,18.17
2023-05-06T23:29:26.610Z,18.25
2023-05-06T23:31:53.113Z,19.92
2023-05-06T23:34:19.620Z,18.77
2023-05-06T23:36:46.011Z,18.65
2023-05-06T23:39:12.632Z,19.17
2023-05-06T23:41:39.029Z,19.40
2023-05-06T23:44:06.071Z,20.10
2023-05-06T23:46:32.675Z,17.95
2023-05-06T23:48:59.167Z,17.73
2023-05-06T23:51:26.510Z,17.70
2023-05-06T23:53:53.080Z,17.85
2023-05-06T23:56:20.539Z,16.05
2023-05-06T23:58:47.060Z,18.67
